createdAt,value
2022-08-11T00:08:54.890Z,16.12
2022-08-11T00:20:15.055Z,15.96
2022-08-11T00:30:55.923Z,15.71
2022-08-11T00:41:57.021Z,15.68
2022-08-11T00:52:57.752Z,15.42
2022-08-11T01:03:59.721Z,15.31
2022-08-11T01:15:00.722Z,15.30
2022-08-11T01:26:01.881Z,15.12
2022-08-11T01:37:04.315Z,14.95
2022-08-11T01:48:07.176Z,14.84
2022-08-11T01:59:08.799Z,14.75
2022-08-11T02:10:08.859Z,14.74
2022-08-11T02:21:09.382Z,14.61
2022-08-11T02:32:24.727Z,14.53
2022-08-11T02:43:13.371Z,14.41
2022-08-11T02:54:07.042Z,14.36
2022-08-11T03:05:06.690Z,14.17
2022-08-11T03:16:07.559Z,14.13
2022-08-11T03:27:09.167Z,13.99
2022-08-11T03:37:53.966Z,13.91
2022-08-11T03:48:54.540Z,13.61
2022-08-11T03:59:56.169Z,13.59
2022-08-11T04:10:58.614Z,13.48
2022-08-11T04:21:57.952Z,13.73
2022-08-11T04:33:00.077Z,13.92
2022-08-11T04:44:05.768Z,14.17
2022-08-11T04:55:05.178Z,14.59
2022-08-11T05:06:04.462Z,14.79
2022-08-11T05:17:07.263Z,15.28
2022-08-11T05:28:04.124Z,15.82
2022-08-11T05:39:04.992Z,15.85
2022-08-11T05:50:05.412Z,16.03
2022-08-11T06:01:04.742Z,16.65
2022-08-11T06:12:06.385Z,16.96
2022-08-11T06:23:08.502Z,17.39
2022-08-11T06:34:09.561Z,18.09
2022-08-11T06:45:08.857Z,19.01
2022-08-11T06:56:11.279Z,19.72
2022-08-11T07:07:14.277Z,20.42
2022-08-11T07:18:12.251Z,21.17
2022-08-11T07:29:13.325Z,21.70
2022-08-11T07:40:10.041Z,22.22
2022-08-11T07:51:05.985Z,22.30
2022-08-11T08:02:06.184Z,22.56
2022-08-11T08:13:01.743Z,22.89
2022-08-11T08:24:02.479Z,23.22
2022-08-11T08:35:03.129Z,23.52
2022-08-11T08:46:04.752Z,23.55
2022-08-11T08:57:04.286Z,24.30
2022-08-11T09:07:58.406Z,24.16
2022-08-11T09:18:57.904Z,24.48
2022-08-11T09:29:57.031Z,24.80
2022-08-11T09:40:56.965Z,24.94
2022-08-11T09:52:01.998Z,25.35
2022-08-11T10:03:00.504Z,25.74
2022-08-11T10:14:33.321Z,26.21
2022-08-11T10:25:00.830Z,26.75
2022-08-11T10:35:57.772Z,27.57
2022-08-11T10:46:53.322Z,27.64
2022-08-11T10:58:04.726Z,26.92
2022-08-11T11:08:55.534Z,28.02
2022-08-11T11:19:56.376Z,28.93
2022-08-11T11:30:53.232Z,30.21
2022-08-11T11:41:52.727Z,31.80
2022-08-11T11:52:54.787Z,34.08
2022-08-11T12:03:56.885Z,35.92
2022-08-11T12:14:57.805Z,34.75
2022-08-11T12:26:23.380Z,33.09
2022-08-11T12:36:59.438Z,34.60
2022-08-11T12:48:57.316Z,34.08
2022-08-11T12:59:03.853Z,35.24
2022-08-11T13:10:02.387Z,35.68
2022-08-11T13:21:03.929Z,35.87
2022-08-11T13:31:58.905Z,33.95
2022-08-11T13:42:54.392Z,30.97
2022-08-11T13:53:48.721Z,30.46
2022-08-11T14:04:46.848Z,30.30
2022-08-11T14:15:47.588Z,31.89
2022-08-11T14:26:46.159Z,33.61
2022-08-11T14:37:43.290Z,32.92
2022-08-11T14:48:47.842Z,34.29
2022-08-11T14:59:43.186Z,32.23
2022-08-11T15:10:42.106Z,31.44
2022-08-11T15:21:38.559Z,29.78
2022-08-11T15:32:34.485Z,28.38
2022-08-11T15:43:33.945Z,27.67
2022-08-11T15:54:35.071Z,27.45
2022-08-11T16:05:46.740Z,27.79
2022-08-11T16:16:39.994Z,27.24
2022-08-11T16:27:40.678Z,26.80
2022-08-11T16:38:40.868Z,26.45
2022-08-11T16:49:38.484Z,25.97
2022-08-11T17:00:38.333Z,25.74
2022-08-11T17:11:33.070Z,25.56
2022-08-11T17:22:30.771Z,25.22
2022-08-11T17:33:22.617Z,25.08
2022-08-11T17:44:18.393Z,24.80
2022-08-11T17:55:13.523Z,24.57
2022-08-11T18:06:13.285Z,24.47
2022-08-11T18:17:09.272Z,24.37
2022-08-11T18:28:06.170Z,24.12
2022-08-11T18:39:06.812Z,23.97
2022-08-11T18:50:06.740Z,23.85
2022-08-11T19:01:08.404Z,23.71
2022-08-11T19:12:08.725Z,23.56
2022-08-11T19:23:08.437Z,23.29
2022-08-11T19:34:10.023Z,23.08
2022-08-11T19:45:03.776Z,22.90
2022-08-11T19:56:03.312Z,22.75
2022-08-11T20:07:03.735Z,22.54
2022-08-11T20:18:03.249Z,22.31
2022-08-11T20:28:59.216Z,22.24
2022-08-11T20:39:59.104Z,22.02
2022-08-11T20:50:36.511Z,21.94
2022-08-11T21:01:38.256Z,21.64
2022-08-11T21:12:36.566Z,21.61
2022-08-11T21:23:35.017Z,21.30
2022-08-11T21:34:30.385Z,21.27
2022-08-11T21:45:26.629Z,20.99
2022-08-11T21:56:27.775Z,20.98
2022-08-11T22:07:28.444Z,20.94
2022-08-11T22:18:31.291Z,20.87
2022-08-11T22:29:41.358Z,20.53
2022-08-11T22:40:38.105Z,20.31
2022-08-11T22:51:39.317Z,20.15
2022-08-11T23:02:40.053Z,20.15
2022-08-11T23:13:41.246Z,19.93
2022-08-11T23:24:38.390Z,19.87
2022-08-11T23:35:54.887Z,19.90
2022-08-11T23:46:40.801Z,19.86
2022-08-11T23:57:49.290Z,19.86
